sensor_id;sensor_type;location;lat;lon;timestamp;temperature;humidity
18613;DHT22;9436;52.152;21.032;2022-10-16T00:01:17;14.80;99.90
18613;DHT22;9436;52.152;21.032;2022-10-16T00:03:45;14.80;99.90
18613;DHT22;9436;52.152;21.032;2022-10-16T00:06:13;14.80;99.90
18613;DHT22;9436;52.152;21.032;2022-10-16T00:08:40;14.80;99.90
18613;DHT22;9436;52.152;21.032;2022-10-16T00:11:10;14.80;99.90
18613;DHT22;9436;52.152;21.032;2022-10-16T00:13:39;14.90;99.90
18613;DHT22;9436;52.152;21.032;2022-10-16T00:16:09;14.90;99.90
18613;DHT22;9436;52.152;21.032;2022-10-16T00:18:36;14.90;99.90
18613;DHT22;9436;52.152;21.032;2022-10-16T00:21:04;14.90;99.90
18613;DHT22;9436;52.152;21.032;2022-10-16T00:23:32;14.90;99.90
18613;DHT22;9436;52.152;21.032;2022-10-16T00:26:00;14.90;99.90
18613;DHT22;9436;52.152;21.032;2022-10-16T00:28:28;14.90;99.90
18613;DHT22;9436;52.152;21.032;2022-10-16T00:30:56;14.80;99.90
18613;DHT22;9436;52.152;21.032;2022-10-16T00:33:24;14.80;99.90
18613;DHT22;9436;52.152;21.032;2022-10-16T00:35:51;14.80;99.90
18613;DHT22;9436;52.152;21.032;2022-10-16T00:38:18;14.80;99.90
18613;DHT22;9436;52.152;21.032;2022-10-16T00:40:45;14.80;99.90
18613;DHT22;9436;52.152;21.032;2022-10-16T00:43:14;14.80;99.90
18613;DHT22;9436;52.152;21.032;2022-10-16T00:45:59;14.80;99.90
18613;DHT22;9436;52.152;21.032;2022-10-16T00:48:28;14.80;99.90
18613;DHT22;9436;52.152;21.032;2022-10-16T00:50:57;14.80;99.90
18613;DHT22;9436;52.152;21.032;2022-10-16T00:53:25;14.80;99.90
18613;DHT22;9436;52.152;21.032;2022-10-16T00:55:53;14.80;99.90
18613;DHT22;9436;52.152;21.032;2022-10-16T00:58:21;14.80;99.90
18613;DHT22;9436;52.152;21.032;2022-10-16T01:00:48;14.70;99.90
18613;DHT22;9436;52.152;21.032;2022-10-16T01:03:28;14.70;99.90
18613;DHT22;9436;52.152;21.032;2022-10-16T01:08:58;14.70;99.90
18613;DHT22;9436;52.152;21.032;2022-10-16T01:11:32;14.70;99.90
18613;DHT22;9436;52.152;21.032;2022-10-16T01:14:08;14.60;99.90
18613;DHT22;9436;52.152;21.032;2022-10-16T01:16:41;14.70;99.90
18613;DHT22;9436;52.152;21.032;2022-10-16T01:19:15;14.60;99.90
18613;DHT22;9436;52.152;21.032;2022-10-16T01:21:44;14.70;99.90
18613;DHT22;9436;52.152;21.032;2022-10-16T01:24:20;14.70;99.90
18613;DHT22;9436;52.152;21.032;2022-10-16T01:27:07;14.70;99.90
18613;DHT22;9436;52.152;21.032;2022-10-16T01:29:39;14.70;99.90
18613;DHT22;9436;52.152;21.032;2022-10-16T01:32:13;14.70;99.90
18613;DHT22;9436;52.152;21.032;2022-10-16T01:34:47;14.70;99.90
18613;DHT22;9436;52.152;21.032;2022-10-16T01:37:25;14.80;99.90
18613;DHT22;9436;52.152;21.032;2022-10-16T01:39:57;14.80;99.90
18613;DHT22;9436;52.152;21.032;2022-10-16T01:42:30;14.80;99.90
18613;DHT22;9436;52.152;21.032;2022-10-16T01:44:59;14.80;99.90
18613;DHT22;9436;52.152;21.032;2022-10-16T01:47:28;14.70;99.90
18613;DHT22;9436;52.152;21.032;2022-10-16T01:49:58;14.70;99.90
18613;DHT22;9436;52.152;21.032;2022-10-16T01:52:26;14.70;99.90
18613;DHT22;9436;52.152;21.032;2022-10-16T01:54:55;14.70;99.90
18613;DHT22;9436;52.152;21.032;2022-10-16T01:57:24;14.70;99.90
18613;DHT22;9436;52.152;21.032;2022-10-16T01:59:56;14.70;99.90
18613;DHT22;9436;52.152;21.032;2022-10-16T02:02:27;14.70;99.90
18613;DHT22;9436;52.152;21.032;2022-10-16T02:04:58;14.70;99.90
18613;DHT22;9436;52.152;21.032;2022-10-16T02:07:25;14.80;99.90
18613;DHT22;9436;52.152;21.032;2022-10-16T02:09:53;14.80;99.90
18613;DHT22;9436;52.152;21.032;2022-10-16T02:12:25;14.80;99.90
18613;DHT22;9436;52.152;21.032;2022-10-16T02:14:54;14.80;99.90
18613;DHT22;9436;52.152;21.032;2022-10-16T02:17:22;14.80;99.90
18613;DHT22;9436;52.152;21.032;2022-10-16T02:19:51;14.70;99.90
18613;DHT22;9436;52.152;21.032;2022-10-16T02:22:24;14.70;99.90
18613;DHT22;9436;52.152;21.032;2022-10-16T02:24:57;14.70;99.90
18613;DHT22;9436;52.152;21.032;2022-10-16T02:27:29;14.70;99.90
18613;DHT22;9436;52.152;21.032;2022-10-16T02:30:05;14.70;99.90
18613;DHT22;9436;52.152;21.032;2022-10-16T02:32:36;14.70;99.90
18613;DHT22;9436;52.152;21.032;2022-10-16T02:35:04;14.70;99.90
18613;DHT22;9436;52.152;21.032;2022-10-16T02:37:33;14.70;99.90
18613;DHT22;9436;52.152;21.032;2022-10-16T02:40:00;14.60;99.90
18613;DHT22;9436;52.152;21.032;2022-10-16T02:42:29;14.60;99.90
18613;DHT22;9436;52.152;21.032;2022-10-16T02:45:00;14.60;99.90
18613;DHT22;9436;52.152;21.032;2022-10-16T02:47:27;14.50;99.90
18613;DHT22;9436;52.152;21.032;2022-10-16T02:49:54;14.50;99.90
18613;DHT22;9436;52.152;21.032;2022-10-16T02:52:21;14.50;99.90
18613;DHT22;9436;52.152;21.032;2022-10-16T02:54:48;14.50;99.90
18613;DHT22;9436;52.152;21.032;2022-10-16T02:57:15;14.50;99.90
18613;DHT22;9436;52.152;21.032;2022-10-16T02:59:43;14.50;99.90
18613;DHT22;9436;52.152;21.032;2022-10-16T03:02:11;14.50;99.90
18613;DHT22;9436;52.152;21.032;2022-10-16T03:04:39;14.50;99.90
18613;DHT22;9436;52.152;21.032;2022-10-16T03:07:06;14.50;99.90
18613;DHT22;9436;52.152;21.032;2022-10-16T03:09:33;14.50;99.90
18613;DHT22;9436;52.152;21.032;2022-10-16T03:12:00;14.50;99.90
18613;DHT22;9436;52.152;21.032;2022-10-16T03:14:27;14.50;99.90
18613;DHT22;9436;52.152;21.032;2022-10-16T03:16:54;14.50;99.90
18613;DHT22;9436;52.152;21.032;2022-10-16T03:19:22;14.50;99.90
18613;DHT22;9436;52.152;21.032;2022-10-16T03:21:49;14.50;99.90
18613;DHT22;9436;52.152;21.032;2022-10-16T03:24:16;14.50;99.90
18613;DHT22;9436;52.152;21.032;2022-10-16T03:26:43;14.50;99.90
18613;DHT22;9436;52.152;21.032;2022-10-16T03:29:10;14.50;99.90
18613;DHT22;9436;52.152;21.032;2022-10-16T03:31:37;14.40;99.90
18613;DHT22;9436;52.152;21.032;2022-10-16T03:34:04;14.50;99.90
18613;DHT22;9436;52.152;21.032;2022-10-16T03:36:33;14.50;99.90
18613;DHT22;9436;52.152;21.032;2022-10-16T03:39:00;14.50;99.90
18613;DHT22;9436;52.152;21.032;2022-10-16T03:41:30;14.50;99.90
18613;DHT22;9436;52.152;21.032;2022-10-16T03:43:57;14.50;99.90
18613;DHT22;9436;52.152;21.032;2022-10-16T03:46:24;14.50;99.90
18613;DHT22;9436;52.152;21.032;2022-10-16T03:48:51;14.50;99.90
18613;DHT22;9436;52.152;21.032;2022-10-16T03:51:18;14.40;99.90
18613;DHT22;9436;52.152;21.032;2022-10-16T03:53:46;14.50;99.90
18613;DHT22;9436;52.152;21.032;2022-10-16T03:56:13;14.50;99.90
18613;DHT22;9436;52.152;21.032;2022-10-16T03:58:40;14.40;99.90
18613;DHT22;9436;52.152;21.032;2022-10-16T04:01:07;14.40;99.90
18613;DHT22;9436;52.152;21.032;2022-10-16T04:03:34;14.30;99.90
18613;DHT22;9436;52.152;21.032;2022-10-16T04:06:01;14.30;99.90
18613;DHT22;9436;52.152;21.032;2022-10-16T04:08:28;14.30;99.90
18613;DHT22;9436;52.152;21.032;2022-10-16T04:10:56;14.30;99.90
18613;DHT22;9436;52.152;21.032;2022-10-16T04:13:23;14.30;99.90
18613;DHT22;9436;52.152;21.032;2022-10-16T04:15:50;14.30;99.90
18613;DHT22;9436;52.152;21.032;2022-10-16T04:18:17;14.30;99.90
18613;DHT22;9436;52.152;21.032;2022-10-16T04:20:44;14.30;99.90
18613;DHT22;9436;52.152;21.032;2022-10-16T04:23:11;14.30;99.90
18613;DHT22;9436;52.152;21.032;2022-10-16T04:25:39;14.30;99.90
18613;DHT22;9436;52.152;21.032;2022-10-16T04:28:07;14.30;99.90
18613;DHT22;9436;52.152;21.032;2022-10-16T04:30:34;14.20;99.90
18613;DHT22;9436;52.152;21.032;2022-10-16T04:33:01;14.20;99.90
18613;DHT22;9436;52.152;21.032;2022-10-16T04:35:28;14.20;99.90
18613;DHT22;9436;52.152;21.032;2022-10-16T04:37:57;14.20;99.90
18613;DHT22;9436;52.152;21.032;2022-10-16T04:40:24;14.10;99.90
18613;DHT22;9436;52.152;21.032;2022-10-16T04:42:52;14.20;99.90
18613;DHT22;9436;52.152;21.032;2022-10-16T04:45:20;14.10;99.90
18613;DHT22;9436;52.152;21.032;2022-10-16T04:47:47;14.10;99.90
18613;DHT22;9436;52.152;21.032;2022-10-16T04:50:14;14.10;99.90
18613;DHT22;9436;52.152;21.032;2022-10-16T04:52:41;14.10;99.90
18613;DHT22;9436;52.152;21.032;2022-10-16T04:55:08;14.00;99.90
18613;DHT22;9436;52.152;21.032;2022-10-16T04:57:35;14.00;99.90
18613;DHT22;9436;52.152;21.032;2022-10-16T05:00:03;14.00;99.90
18613;DHT22;9436;52.152;21.032;2022-10-16T05:02:32;14.00;99.90
18613;DHT22;9436;52.152;21.032;2022-10-16T05:04:59;14.00;99.90
18613;DHT22;9436;52.152;21.032;2022-10-16T05:07:26;13.90;99.90
18613;DHT22;9436;52.152;21.032;2022-10-16T05:09:53;14.00;99.90
18613;DHT22;9436;52.152;21.032;2022-10-16T05:12:20;13.90;99.90
18613;DHT22;9436;52.152;21.032;2022-10-16T05:14:47;13.90;99.90
18613;DHT22;9436;52.152;21.032;2022-10-16T05:17:14;13.90;99.90
18613;DHT22;9436;52.152;21.032;2022-10-16T05:19:42;13.90;99.90
18613;DHT22;9436;52.152;21.032;2022-10-16T05:22:09;13.80;99.90
18613;DHT22;9436;52.152;21.032;2022-10-16T05:24:36;13.90;99.90
18613;DHT22;9436;52.152;21.032;2022-10-16T05:27:03;13.80;99.90
18613;DHT22;9436;52.152;21.032;2022-10-16T05:29:30;13.70;99.90
18613;DHT22;9436;52.152;21.032;2022-10-16T05:31:57;13.70;99.90
18613;DHT22;9436;52.152;21.032;2022-10-16T05:34:24;13.70;99.90
18613;DHT22;9436;52.152;21.032;2022-10-16T05:36:53;13.70;99.90
18613;DHT22;9436;52.152;21.032;2022-10-16T05:39:20;13.70;99.90
18613;DHT22;9436;52.152;21.032;2022-10-16T05:41:49;13.60;99.90
18613;DHT22;9436;52.152;21.032;2022-10-16T05:44:16;13.60;99.90
18613;DHT22;9436;52.152;21.032;2022-10-16T05:46:43;13.70;99.90
18613;DHT22;9436;52.152;21.032;2022-10-16T05:49:10;13.70;99.90
18613;DHT22;9436;52.152;21.032;2022-10-16T05:51:37;13.70;99.90
18613;DHT22;9436;52.152;21.032;2022-10-16T05:54:05;13.70;99.90
18613;DHT22;9436;52.152;21.032;2022-10-16T05:56:33;13.70;99.90
18613;DHT22;9436;52.152;21.032;2022-10-16T05:59:00;13.60;99.90
18613;DHT22;9436;52.152;21.032;2022-10-16T06:01:27;13.70;99.90
18613;DHT22;9436;52.152;21.032;2022-10-16T06:03:54;13.60;99.90
18613;DHT22;9436;52.152;21.032;2022-10-16T06:06:22;13.60;99.90
18613;DHT22;9436;52.152;21.032;2022-10-16T06:08:49;13.60;99.90
18613;DHT22;9436;52.152;21.032;2022-10-16T06:11:19;13.70;99.90
18613;DHT22;9436;52.152;21.032;2022-10-16T06:13:49;13.60;99.90
18613;DHT22;9436;52.152;21.032;2022-10-16T06:16:16;13.60;99.90
18613;DHT22;9436;52.152;21.032;2022-10-16T06:18:44;13.60;99.90
18613;DHT22;9436;52.152;21.032;2022-10-16T06:21:13;13.60;99.90
18613;DHT22;9436;52.152;21.032;2022-10-16T06:23:40;13.70;99.90
18613;DHT22;9436;52.152;21.032;2022-10-16T06:26:08;13.70;99.90
18613;DHT22;9436;52.152;21.032;2022-10-16T06:28:37;13.70;99.90
18613;DHT22;9436;52.152;21.032;2022-10-16T06:31:05;13.70;99.90
18613;DHT22;9436;52.152;21.032;2022-10-16T06:33:32;13.80;99.90
18613;DHT22;9436;52.152;21.032;2022-10-16T06:36:03;13.90;99.90
18613;DHT22;9436;52.152;21.032;2022-10-16T06:38:30;13.90;99.90
18613;DHT22;9436;52.152;21.032;2022-10-16T06:40:58;13.90;99.90
18613;DHT22;9436;52.152;21.032;2022-10-16T06:43:25;14.00;99.90
18613;DHT22;9436;52.152;21.032;2022-10-16T06:45:55;14.00;99.90
18613;DHT22;9436;52.152;21.032;2022-10-16T06:48:23;14.10;99.90
18613;DHT22;9436;52.152;21.032;2022-10-16T06:50:57;14.10;99.90
18613;DHT22;9436;52.152;21.032;2022-10-16T06:53:25;14.10;99.90
18613;DHT22;9436;52.152;21.032;2022-10-16T06:55:52;14.20;99.90
18613;DHT22;9436;52.152;21.032;2022-10-16T06:58:20;14.30;99.90
18613;DHT22;9436;52.152;21.032;2022-10-16T07:00:47;14.30;99.90
18613;DHT22;9436;52.152;21.032;2022-10-16T07:03:15;14.40;99.90
18613;DHT22;9436;52.152;21.032;2022-10-16T07:05:43;14.50;99.90
18613;DHT22;9436;52.152;21.032;2022-10-16T07:08:10;14.50;99.90
18613;DHT22;9436;52.152;21.032;2022-10-16T07:10:37;14.60;99.90
18613;DHT22;9436;52.152;21.032;2022-10-16T07:13:04;14.70;99.90
18613;DHT22;9436;52.152;21.032;2022-10-16T07:15:33;14.80;99.90
18613;DHT22;9436;52.152;21.032;2022-10-16T07:18:00;14.80;99.90
18613;DHT22;9436;52.152;21.032;2022-10-16T07:20:29;14.90;99.90
18613;DHT22;9436;52.152;21.032;2022-10-16T07:22:56;14.90;99.90
18613;DHT22;9436;52.152;21.032;2022-10-16T07:25:23;15.00;99.90
18613;DHT22;9436;52.152;21.032;2022-10-16T07:27:50;14.90;99.90
18613;DHT22;9436;52.152;21.032;2022-10-16T07:30:17;15.00;99.90
18613;DHT22;9436;52.152;21.032;2022-10-16T07:32:43;14.90;99.90
18613;DHT22;9436;52.152;21.032;2022-10-16T07:35:10;15.00;99.90
18613;DHT22;9436;52.152;21.032;2022-10-16T07:37:39;15.10;99.90
18613;DHT22;9436;52.152;21.032;2022-10-16T07:40:07;15.10;99.90
18613;DHT22;9436;52.152;21.032;2022-10-16T07:42:34;15.20;99.90
18613;DHT22;9436;52.152;21.032;2022-10-16T07:45:01;15.40;99.90
18613;DHT22;9436;52.152;21.032;2022-10-16T07:47:28;15.40;99.90
18613;DHT22;9436;52.152;21.032;2022-10-16T07:49:55;15.40;99.90
18613;DHT22;9436;52.152;21.032;2022-10-16T07:52:22;15.50;99.90
18613;DHT22;9436;52.152;21.032;2022-10-16T07:54:50;15.60;99.90
18613;DHT22;9436;52.152;21.032;2022-10-16T07:57:17;15.70;99.90
18613;DHT22;9436;52.152;21.032;2022-10-16T07:59:45;15.90;99.90
18613;DHT22;9436;52.152;21.032;2022-10-16T08:02:12;16.00;99.90
18613;DHT22;9436;52.152;21.032;2022-10-16T08:04:39;16.10;99.90
18613;DHT22;9436;52.152;21.032;2022-10-16T08:07:07;16.20;99.90
18613;DHT22;9436;52.152;21.032;2022-10-16T08:09:35;16.30;99.90
18613;DHT22;9436;52.152;21.032;2022-10-16T08:12:03;16.50;99.90
18613;DHT22;9436;52.152;21.032;2022-10-16T08:14:30;16.50;99.90
18613;DHT22;9436;52.152;21.032;2022-10-16T08:16:57;16.60;99.90
18613;DHT22;9436;52.152;21.032;2022-10-16T08:19:24;16.70;99.90
18613;DHT22;9436;52.152;21.032;2022-10-16T08:21:51;16.80;99.90
18613;DHT22;9436;52.152;21.032;2022-10-16T08:24:18;16.80;99.90
18613;DHT22;9436;52.152;21.032;2022-10-16T08:26:45;16.80;99.90
18613;DHT22;9436;52.152;21.032;2022-10-16T08:29:15;16.90;99.90
18613;DHT22;9436;52.152;21.032;2022-10-16T08:31:42;17.00;99.90
18613;DHT22;9436;52.152;21.032;2022-10-16T08:34:08;17.10;99.90
18613;DHT22;9436;52.152;21.032;2022-10-16T08:36:35;17.20;99.90
18613;DHT22;9436;52.152;21.032;2022-10-16T08:39:03;17.40;99.90
18613;DHT22;9436;52.152;21.032;2022-10-16T08:42:01;17.30;99.90
18613;DHT22;9436;52.152;21.032;2022-10-16T08:44:51;17.30;99.90
18613;DHT22;9436;52.152;21.032;2022-10-16T08:47:24;17.20;99.90
18613;DHT22;9436;52.152;21.032;2022-10-16T08:49:56;17.20;99.90
18613;DHT22;9436;52.152;21.032;2022-10-16T08:52:29;17.20;99.90
18613;DHT22;9436;52.152;21.032;2022-10-16T08:54:56;17.20;99.90
18613;DHT22;9436;52.152;21.032;2022-10-16T08:57:25;17.10;99.90
18613;DHT22;9436;52.152;21.032;2022-10-16T08:59:56;17.10;99.90
18613;DHT22;9436;52.152;21.032;2022-10-16T09:02:31;17.10;99.90
18613;DHT22;9436;52.152;21.032;2022-10-16T09:05:20;17.10;99.90
18613;DHT22;9436;52.152;21.032;2022-10-16T09:07:55;17.20;99.90
18613;DHT22;9436;52.152;21.032;2022-10-16T09:10:34;17.20;99.90
18613;DHT22;9436;52.152;21.032;2022-10-16T09:13:14;17.30;99.90
18613;DHT22;9436;52.152;21.032;2022-10-16T09:15:49;17.40;99.90
18613;DHT22;9436;52.152;21.032;2022-10-16T09:18:26;17.50;99.90
18613;DHT22;9436;52.152;21.032;2022-10-16T09:21:01;17.60;99.90
18613;DHT22;9436;52.152;21.032;2022-10-16T09:23:34;17.80;99.90
18613;DHT22;9436;52.152;21.032;2022-10-16T09:26:03;17.90;99.90
18613;DHT22;9436;52.152;21.032;2022-10-16T09:28:31;18.00;99.90
18613;DHT22;9436;52.152;21.032;2022-10-16T09:30:59;18.00;99.90
18613;DHT22;9436;52.152;21.032;2022-10-16T09:33:29;18.00;99.90
18613;DHT22;9436;52.152;21.032;2022-10-16T09:35:59;18.10;99.90
18613;DHT22;9436;52.152;21.032;2022-10-16T09:38:30;18.20;99.90
18613;DHT22;9436;52.152;21.032;2022-10-16T09:40:59;18.40;99.90
18613;DHT22;9436;52.152;21.032;2022-10-16T09:43:33;18.50;99.90
18613;DHT22;9436;52.152;21.032;2022-10-16T09:46:05;18.70;99.90
18613;DHT22;9436;52.152;21.032;2022-10-16T09:48:37;18.90;99.90
18613;DHT22;9436;52.152;21.032;2022-10-16T09:51:06;19.00;99.90
18613;DHT22;9436;52.152;21.032;2022-10-16T09:53:42;19.00;99.90
18613;DHT22;9436;52.152;21.032;2022-10-16T09:56:11;19.10;99.90
18613;DHT22;9436;52.152;21.032;2022-10-16T09:58:42;19.10;99.90
18613;DHT22;9436;52.152;21.032;2022-10-16T10:01:15;19.00;99.90
18613;DHT22;9436;52.152;21.032;2022-10-16T10:03:43;19.00;99.90
18613;DHT22;9436;52.152;21.032;2022-10-16T10:06:21;19.00;99.90
18613;DHT22;9436;52.152;21.032;2022-10-16T10:08:56;19.10;99.90
18613;DHT22;9436;52.152;21.032;2022-10-16T10:11:38;19.20;99.90
18613;DHT22;9436;52.152;21.032;2022-10-16T10:14:06;19.10;99.90
18613;DHT22;9436;52.152;21.032;2022-10-16T10:16:38;19.20;99.90
18613;DHT22;9436;52.152;21.032;2022-10-16T10:19:14;19.20;99.90
18613;DHT22;9436;52.152;21.032;2022-10-16T10:21:41;19.20;99.90
18613;DHT22;9436;52.152;21.032;2022-10-16T10:24:11;19.30;99.90
18613;DHT22;9436;52.152;21.032;2022-10-16T10:26:40;19.40;99.90
18613;DHT22;9436;52.152;21.032;2022-10-16T10:29:13;19.40;99.90
18613;DHT22;9436;52.152;21.032;2022-10-16T10:31:49;19.40;99.90
18613;DHT22;9436;52.152;21.032;2022-10-16T10:34:33;19.40;99.90
18613;DHT22;9436;52.152;21.032;2022-10-16T10:37:07;19.50;99.90
18613;DHT22;9436;52.152;21.032;2022-10-16T10:39:43;19.60;99.90
18613;DHT22;9436;52.152;21.032;2022-10-16T10:42:21;19.70;99.90
18613;DHT22;9436;52.152;21.032;2022-10-16T10:45:11;19.90;99.90
18613;DHT22;9436;52.152;21.032;2022-10-16T10:47:51;19.90;99.90
18613;DHT22;9436;52.152;21.032;2022-10-16T10:50:23;19.80;99.90
18613;DHT22;9436;52.152;21.032;2022-10-16T10:52:59;19.80;99.90
18613;DHT22;9436;52.152;21.032;2022-10-16T10:55:39;19.70;99.90
18613;DHT22;9436;52.152;21.032;2022-10-16T10:58:23;19.80;99.90
18613;DHT22;9436;52.152;21.032;2022-10-16T11:00:59;19.70;99.90
18613;DHT22;9436;52.152;21.032;2022-10-16T11:03:58;19.70;99.90
18613;DHT22;9436;52.152;21.032;2022-10-16T11:06:31;19.70;99.90
18613;DHT22;9436;52.152;21.032;2022-10-16T11:09:01;19.80;99.90
18613;DHT22;9436;52.152;21.032;2022-10-16T11:11:34;20.00;99.90
18613;DHT22;9436;52.152;21.032;2022-10-16T11:14:04;20.00;99.90
18613;DHT22;9436;52.152;21.032;2022-10-16T11:16:39;20.10;99.90
18613;DHT22;9436;52.152;21.032;2022-10-16T11:19:14;20.10;99.90
18613;DHT22;9436;52.152;21.032;2022-10-16T11:21:49;20.10;99.90
18613;DHT22;9436;52.152;21.032;2022-10-16T11:24:22;20.00;99.90
18613;DHT22;9436;52.152;21.032;2022-10-16T11:26:51;20.00;99.90
18613;DHT22;9436;52.152;21.032;2022-10-16T11:29:25;20.00;99.90
18613;DHT22;9436;52.152;21.032;2022-10-16T11:31:57;20.00;99.90
18613;DHT22;9436;52.152;21.032;2022-10-16T11:34:29;20.00;99.90
18613;DHT22;9436;52.152;21.032;2022-10-16T11:37:04;20.00;99.90
18613;DHT22;9436;52.152;21.032;2022-10-16T11:39:33;20.00;99.90
18613;DHT22;9436;52.152;21.032;2022-10-16T11:42:04;20.10;99.90
18613;DHT22;9436;52.152;21.032;2022-10-16T11:44:44;20.10;99.90
18613;DHT22;9436;52.152;21.032;2022-10-16T11:47:25;20.00;99.90
18613;DHT22;9436;52.152;21.032;2022-10-16T11:49:57;20.00;99.90
18613;DHT22;9436;52.152;21.032;2022-10-16T11:52:30;20.00;99.90
18613;DHT22;9436;52.152;21.032;2022-10-16T11:55:03;20.10;99.90
18613;DHT22;9436;52.152;21.032;2022-10-16T11:57:33;20.10;99.90
18613;DHT22;9436;52.152;21.032;2022-10-16T12:00:07;20.10;99.90
18613;DHT22;9436;52.152;21.032;2022-10-16T12:02:44;20.20;99.90
18613;DHT22;9436;52.152;21.032;2022-10-16T12:05:24;20.20;99.90
18613;DHT22;9436;52.152;21.032;2022-10-16T12:08:02;20.30;99.90
18613;DHT22;9436;52.152;21.032;2022-10-16T12:10:31;20.40;99.90
18613;DHT22;9436;52.152;21.032;2022-10-16T12:13:02;20.40;99.90
18613;DHT22;9436;52.152;21.032;2022-10-16T12:15:31;20.40;99.90
18613;DHT22;9436;52.152;21.032;2022-10-16T12:17:59;20.40;99.90
18613;DHT22;9436;52.152;21.032;2022-10-16T12:20:29;20.40;99.90
18613;DHT22;9436;52.152;21.032;2022-10-16T12:22:59;20.40;99.90
18613;DHT22;9436;52.152;21.032;2022-10-16T12:25:29;20.40;99.90
18613;DHT22;9436;52.152;21.032;2022-10-16T12:28:01;20.30;99.90
18613;DHT22;9436;52.152;21.032;2022-10-16T12:30:30;20.30;99.90
18613;DHT22;9436;52.152;21.032;2022-10-16T12:33:00;20.20;99.90
18613;DHT22;9436;52.152;21.032;2022-10-16T12:35:31;20.20;99.90
18613;DHT22;9436;52.152;21.032;2022-10-16T12:38:07;20.20;99.90
18613;DHT22;9436;52.152;21.032;2022-10-16T12:40:37;20.20;99.90
18613;DHT22;9436;52.152;21.032;2022-10-16T12:43:39;20.20;99.90
18613;DHT22;9436;52.152;21.032;2022-10-16T12:46:23;20.20;99.90
18613;DHT22;9436;52.152;21.032;2022-10-16T12:48:50;20.30;99.90
18613;DHT22;9436;52.152;21.032;2022-10-16T12:51:25;20.30;99.90
18613;DHT22;9436;52.152;21.032;2022-10-16T12:54:00;20.30;99.90
18613;DHT22;9436;52.152;21.032;2022-10-16T12:56:36;20.30;99.90
18613;DHT22;9436;52.152;21.032;2022-10-16T12:59:16;20.20;99.90
18613;DHT22;9436;52.152;21.032;2022-10-16T13:01:57;20.20;99.90
18613;DHT22;9436;52.152;21.032;2022-10-16T13:04:51;20.30;99.90
18613;DHT22;9436;52.152;21.032;2022-10-16T13:07:39;20.30;99.90
18613;DHT22;9436;52.152;21.032;2022-10-16T13:10:17;20.40;99.90
18613;DHT22;9436;52.152;21.032;2022-10-16T13:13:09;20.30;99.90
18613;DHT22;9436;52.152;21.032;2022-10-16T13:16:02;20.30;99.90
18613;DHT22;9436;52.152;21.032;2022-10-16T13:18:42;20.30;99.90
18613;DHT22;9436;52.152;21.032;2022-10-16T13:21:19;20.20;99.90
18613;DHT22;9436;52.152;21.032;2022-10-16T13:23:54;20.20;99.90
18613;DHT22;9436;52.152;21.032;2022-10-16T13:26:34;20.00;99.90
18613;DHT22;9436;52.152;21.032;2022-10-16T13:29:06;20.00;99.90
18613;DHT22;9436;52.152;21.032;2022-10-16T13:31:33;19.90;99.90
18613;DHT22;9436;52.152;21.032;2022-10-16T13:34:01;19.80;99.90
18613;DHT22;9436;52.152;21.032;2022-10-16T13:36:29;19.80;99.90
18613;DHT22;9436;52.152;21.032;2022-10-16T13:39:10;19.70;99.90
18613;DHT22;9436;52.152;21.032;2022-10-16T13:41:37;19.70;99.90
18613;DHT22;9436;52.152;21.032;2022-10-16T13:44:07;19.70;99.90
18613;DHT22;9436;52.152;21.032;2022-10-16T13:46:38;19.70;99.90
18613;DHT22;9436;52.152;21.032;2022-10-16T13:49:11;19.70;99.90
18613;DHT22;9436;52.152;21.032;2022-10-16T13:51:38;19.60;99.90
18613;DHT22;9436;52.152;21.032;2022-10-16T13:54:09;19.60;99.90
18613;DHT22;9436;52.152;21.032;2022-10-16T13:56:39;19.60;99.90
18613;DHT22;9436;52.152;21.032;2022-10-16T13:59:23;19.60;99.90
18613;DHT22;9436;52.152;21.032;2022-10-16T14:01:52;19.60;99.90
18613;DHT22;9436;52.152;21.032;2022-10-16T14:04:21;19.60;99.90
18613;DHT22;9436;52.152;21.032;2022-10-16T14:06:50;19.60;99.90
18613;DHT22;9436;52.152;21.032;2022-10-16T14:09:23;19.60;99.90
18613;DHT22;9436;52.152;21.032;2022-10-16T14:11:53;19.60;99.90
18613;DHT22;9436;52.152;21.032;2022-10-16T14:14:21;19.50;99.90
18613;DHT22;9436;52.152;21.032;2022-10-16T14:16:49;19.60;99.90
18613;DHT22;9436;52.152;21.032;2022-10-16T14:19:20;19.50;99.90
18613;DHT22;9436;52.152;21.032;2022-10-16T14:21:49;19.50;99.90
18613;DHT22;9436;52.152;21.032;2022-10-16T14:24:26;19.60;99.90
18613;DHT22;9436;52.152;21.032;2022-10-16T14:26:54;19.50;99.90
18613;DHT22;9436;52.152;21.032;2022-10-16T14:29:23;19.50;99.90
18613;DHT22;9436;52.152;21.032;2022-10-16T14:31:58;19.50;99.90
18613;DHT22;9436;52.152;21.032;2022-10-16T14:34:27;19.50;99.90
18613;DHT22;9436;52.152;21.032;2022-10-16T14:36:56;19.50;99.90
18613;DHT22;9436;52.152;21.032;2022-10-16T14:39:25;19.40;99.90
18613;DHT22;9436;52.152;21.032;2022-10-16T14:41:56;19.40;99.90
18613;DHT22;9436;52.152;21.032;2022-10-16T14:44:28;19.40;99.90
18613;DHT22;9436;52.152;21.032;2022-10-16T14:46:56;19.40;99.90
18613;DHT22;9436;52.152;21.032;2022-10-16T14:49:25;19.40;99.90
18613;DHT22;9436;52.152;21.032;2022-10-16T14:51:53;19.40;99.90
18613;DHT22;9436;52.152;21.032;2022-10-16T14:54:20;19.40;99.90
18613;DHT22;9436;52.152;21.032;2022-10-16T14:56:51;19.40;99.90
18613;DHT22;9436;52.152;21.032;2022-10-16T14:59:22;19.30;99.90
18613;DHT22;9436;52.152;21.032;2022-10-16T15:01:50;19.30;99.90
18613;DHT22;9436;52.152;21.032;2022-10-16T15:04:17;19.30;99.90
18613;DHT22;9436;52.152;21.032;2022-10-16T15:06:44;19.20;99.90
18613;DHT22;9436;52.152;21.032;2022-10-16T15:09:11;19.20;99.90
18613;DHT22;9436;52.152;21.032;2022-10-16T15:11:39;19.20;99.90
18613;DHT22;9436;52.152;21.032;2022-10-16T15:14:09;19.10;99.90
18613;DHT22;9436;52.152;21.032;2022-10-16T15:16:37;19.10;99.90
18613;DHT22;9436;52.152;21.032;2022-10-16T15:19:04;19.10;99.90
18613;DHT22;9436;52.152;21.032;2022-10-16T15:21:32;19.10;99.90
18613;DHT22;9436;52.152;21.032;2022-10-16T15:24:00;19.00;99.90
18613;DHT22;9436;52.152;21.032;2022-10-16T15:26:28;18.90;99.90
18613;DHT22;9436;52.152;21.032;2022-10-16T15:28:55;19.00;99.90
18613;DHT22;9436;52.152;21.032;2022-10-16T15:31:24;18.90;99.90
18613;DHT22;9436;52.152;21.032;2022-10-16T15:33:51;18.90;99.90
18613;DHT22;9436;52.152;21.032;2022-10-16T15:36:28;18.90;99.90
18613;DHT22;9436;52.152;21.032;2022-10-16T15:38:55;18.80;99.90
18613;DHT22;9436;52.152;21.032;2022-10-16T15:41:24;18.80;99.90
18613;DHT22;9436;52.152;21.032;2022-10-16T15:43:51;18.80;99.90
18613;DHT22;9436;52.152;21.032;2022-10-16T15:46:19;18.70;99.90
18613;DHT22;9436;52.152;21.032;2022-10-16T15:48:49;18.70;99.90
18613;DHT22;9436;52.152;21.032;2022-10-16T15:51:17;18.70;99.90
18613;DHT22;9436;52.152;21.032;2022-10-16T15:53:44;18.70;99.90